createdAt,value
2022-11-12T00:00:39.407Z,93.40
2022-11-12T00:03:09.708Z,93.40
2022-11-12T00:05:40.078Z,93.60
2022-11-12T00:08:16.230Z,93.70
2022-11-12T00:10:46.625Z,93.70
2022-11-12T00:13:17.194Z,93.70
2022-11-12T00:15:49.784Z,93.80
2022-11-12T00:18:19.704Z,93.80
2022-11-12T00:20:49.733Z,93.80
2022-11-12T00:23:19.729Z,93.70
2022-11-12T00:25:49.651Z,93.70
2022-11-12T00:28:19.543Z,93.80
2022-11-12T00:30:49.425Z,94.10
2022-11-12T00:33:19.292Z,93.90
2022-11-12T00:35:50.594Z,93.90
2022-11-12T00:38:20.596Z,93.90
2022-11-12T00:40:50.474Z,93.90
2022-11-12T00:43:20.615Z,93.70
2022-11-12T00:45:50.158Z,93.80
2022-11-12T00:48:19.672Z,93.70
2022-11-12T00:50:49.326Z,93.70
2022-11-12T00:53:19.629Z,93.70
2022-11-12T00:55:49.152Z,93.90
2022-11-12T00:58:18.649Z,93.70
2022-11-12T01:00:48.202Z,93.70
2022-11-12T01:03:17.812Z,94.10
2022-11-12T01:05:47.395Z,93.90
2022-11-12T01:08:16.891Z,93.80
2022-11-12T01:10:46.483Z,93.80
2022-11-12T01:13:16.272Z,93.70
2022-11-12T01:15:45.811Z,93.70
2022-11-12T01:18:15.914Z,93.70
2022-11-12T01:20:45.590Z,93.60
2022-11-12T01:23:15.121Z,93.60
2022-11-12T01:25:44.630Z,93.60
2022-11-12T01:28:14.428Z,93.50
2022-11-12T01:30:43.911Z,93.40
2022-11-12T01:33:13.399Z,93.40
2022-11-12T01:35:42.952Z,93.40
2022-11-12T01:38:12.446Z,93.30
2022-11-12T01:40:41.943Z,93.30
2022-11-12T01:43:15.511Z,93.30
2022-11-12T01:45:48.802Z,93.30
2022-11-12T01:48:30.703Z,93.40
2022-11-12T01:51:00.887Z,93.30
2022-11-12T01:53:35.161Z,93.20
2022-11-12T01:56:07.603Z,93.20
2022-11-12T01:58:40.555Z,93.20
2022-11-12T02:01:10.584Z,93.20
2022-11-12T02:03:40.502Z,93.20
2022-11-12T02:06:15.241Z,93.10
2022-11-12T02:08:46.535Z,93.00
2022-11-12T02:11:19.386Z,93.00
2022-11-12T02:14:00.367Z,92.90
2022-11-12T02:16:38.618Z,92.80
2022-11-12T02:19:15.038Z,92.70
2022-11-12T02:21:45.695Z,92.70
2022-11-12T02:24:35.683Z,92.60
2022-11-12T02:27:08.015Z,92.40
2022-11-12T02:29:37.997Z,92.30
2022-11-12T02:32:08.006Z,92.10
2022-11-12T02:34:37.947Z,91.90
2022-11-12T02:37:08.587Z,91.80
2022-11-12T02:39:38.437Z,91.70
2022-11-12T02:42:08.436Z,91.50
2022-11-12T02:44:38.552Z,91.20
2022-11-12T02:47:09.020Z,91.00
2022-11-12T02:49:38.951Z,90.60
2022-11-12T02:52:08.974Z,90.50
2022-11-12T02:54:39.553Z,90.30
2022-11-12T02:57:09.490Z,90.00
2022-11-12T02:59:39.425Z,89.90
2022-11-12T03:02:09.597Z,89.60
2022-11-12T03:04:40.974Z,89.20
2022-11-12T03:07:13.860Z,89.00
2022-11-12T03:09:44.378Z,88.90
2022-11-12T03:12:14.826Z,88.70
2022-11-12T03:14:45.340Z,89.30
2022-11-12T03:17:15.808Z,88.20
2022-11-12T03:19:46.240Z,87.60
2022-11-12T03:22:16.694Z,86.80
2022-11-12T03:24:49.960Z,86.30
2022-11-12T03:27:20.503Z,86.30
2022-11-12T03:29:50.957Z,86.20
2022-11-12T03:32:21.363Z,86.10
2022-11-12T03:34:55.292Z,85.60
2022-11-12T03:37:26.112Z,85.30
2022-11-12T03:39:56.552Z,84.80
2022-11-12T03:42:27.119Z,84.60
2022-11-12T03:44:57.219Z,84.40
2022-11-12T03:47:30.327Z,84.40
2022-11-12T03:50:00.492Z,84.40
2022-11-12T03:52:30.574Z,82.90
2022-11-12T03:55:02.106Z,81.20
2022-11-12T03:57:32.195Z,80.40
2022-11-12T04:00:02.227Z,80.60
2022-11-12T04:02:38.936Z,80.80
2022-11-12T04:05:32.335Z,80.00
2022-11-12T04:08:34.173Z,79.50
2022-11-12T04:11:05.879Z,79.10
2022-11-12T04:13:35.807Z,79.30
2022-11-12T04:16:35.040Z,79.30
2022-11-12T04:19:25.901Z,79.20
2022-11-12T04:21:59.191Z,79.20
2022-11-12T04:24:59.680Z,78.70
2022-11-12T04:27:33.197Z,76.40
2022-11-12T04:30:22.596Z,76.10
2022-11-12T04:32:58.453Z,75.90
2022-11-12T04:35:29.640Z,76.10
2022-11-12T04:37:59.203Z,76.50
2022-11-12T04:40:49.390Z,76.60
2022-11-12T04:43:39.979Z,76.80
2022-11-12T04:46:09.627Z,76.40
2022-11-12T04:48:39.179Z,76.20
2022-11-12T04:51:28.669Z,75.90
2022-11-12T04:53:58.735Z,75.90
2022-11-12T04:56:28.535Z,74.90
2022-11-12T04:58:58.064Z,75.50
2022-11-12T05:01:27.870Z,75.40
2022-11-12T05:03:57.400Z,75.50
2022-11-12T05:06:46.636Z,75.50
2022-11-12T05:09:16.187Z,75.30
2022-11-12T05:11:46.114Z,75.40
2022-11-12T05:14:16.045Z,75.60
2022-11-12T05:16:46.258Z,75.50
2022-11-12T05:19:15.850Z,75.50
2022-11-12T05:22:05.261Z,75.60
2022-11-12T05:24:42.575Z,75.70
2022-11-12T05:27:16.010Z,75.20
2022-11-12T05:29:45.797Z,74.40
2022-11-12T05:32:17.275Z,74.80
2022-11-12T05:34:47.268Z,74.50
2022-11-12T05:37:18.877Z,74.10
2022-11-12T05:39:53.150Z,73.60
2022-11-12T05:42:23.773Z,73.90
2022-11-12T05:44:56.785Z,74.00
2022-11-12T05:47:26.358Z,74.00
2022-11-12T05:49:55.970Z,73.60
2022-11-12T05:52:25.986Z,73.00
2022-11-12T05:54:55.568Z,72.60
2022-11-12T05:57:25.979Z,72.40
2022-11-12T05:59:55.511Z,72.30
2022-11-12T06:02:25.259Z,71.90
2022-11-12T06:04:55.138Z,71.70
2022-11-12T06:07:25.403Z,71.50
2022-11-12T06:09:55.006Z,71.70
2022-11-12T06:12:24.517Z,71.50
2022-11-12T06:14:54.211Z,71.50
2022-11-12T06:17:23.988Z,71.80
2022-11-12T06:19:53.864Z,71.60
2022-11-12T06:22:23.869Z,70.70
2022-11-12T06:24:54.185Z,70.90
2022-11-12T06:27:25.709Z,71.20
2022-11-12T06:29:55.668Z,71.40
2022-11-12T06:32:29.972Z,71.50
2022-11-12T06:35:03.153Z,71.50
2022-11-12T06:37:33.123Z,70.70
2022-11-12T06:40:03.033Z,70.70
2022-11-12T06:42:33.312Z,70.90
2022-11-12T06:45:04.733Z,71.40
2022-11-12T06:47:34.743Z,70.90
2022-11-12T06:50:04.721Z,71.30
2022-11-12T06:52:34.666Z,71.50
2022-11-12T06:55:06.574Z,71.40
2022-11-12T06:57:38.020Z,70.90
2022-11-12T07:00:08.582Z,70.70
2022-11-12T07:02:39.151Z,71.30
2022-11-12T07:05:09.538Z,70.40
2022-11-12T07:07:39.459Z,70.60
2022-11-12T07:10:09.932Z,70.40
2022-11-12T07:12:39.907Z,70.30
2022-11-12T07:15:09.854Z,70.10
2022-11-12T07:17:39.476Z,69.70
2022-11-12T07:20:10.024Z,69.70
2022-11-12T07:22:39.553Z,69.70
2022-11-12T07:25:09.429Z,69.30
2022-11-12T07:27:39.043Z,69.90
2022-11-12T07:30:09.241Z,69.20
2022-11-12T07:32:43.995Z,68.90
2022-11-12T07:35:15.564Z,68.60
2022-11-12T07:37:45.157Z,68.50
2022-11-12T07:40:15.035Z,68.30
2022-11-12T07:42:45.212Z,68.70
2022-11-12T07:45:15.173Z,68.20
2022-11-12T07:47:45.006Z,68.20
2022-11-12T07:50:17.845Z,68.20
2022-11-12T07:52:47.513Z,68.00
2022-11-12T07:55:17.107Z,68.00
2022-11-12T07:57:46.749Z,67.10
2022-11-12T08:00:17.539Z,66.60
2022-11-12T08:02:47.211Z,66.20
2022-11-12T08:05:21.115Z,66.20
2022-11-12T08:07:51.095Z,66.30
2022-11-12T08:10:20.719Z,64.80
2022-11-12T08:12:50.716Z,64.90
2022-11-12T08:15:20.789Z,64.20
2022-11-12T08:17:50.818Z,64.00
2022-11-12T08:20:20.832Z,63.40
2022-11-12T08:22:50.818Z,64.20
2022-11-12T08:25:20.837Z,64.60
2022-11-12T08:27:50.840Z,64.70
2022-11-12T08:30:20.453Z,64.80
2022-11-12T08:32:50.313Z,64.80
2022-11-12T08:35:20.024Z,65.00
2022-11-12T08:37:49.681Z,65.10
2022-11-12T08:40:19.328Z,65.50
2022-11-12T08:42:49.249Z,65.50
2022-11-12T08:45:18.879Z,65.40
2022-11-12T08:47:48.380Z,65.10
2022-11-12T08:50:21.295Z,65.40
2022-11-12T08:52:50.849Z,65.20
2022-11-12T08:55:20.630Z,65.30
2022-11-12T08:57:50.169Z,65.00
2022-11-12T09:00:20.218Z,65.10
2022-11-12T09:02:49.769Z,64.80
2022-11-12T09:05:19.394Z,64.90
2022-11-12T09:07:50.699Z,65.10
2022-11-12T09:10:20.675Z,65.10
2022-11-12T09:12:54.123Z,65.00
2022-11-12T09:15:40.206Z,65.00
2022-11-12T09:18:16.345Z,65.20
2022-11-12T09:20:46.906Z,65.10
2022-11-12T09:23:19.597Z,65.10
2022-11-12T09:25:49.166Z,65.10
2022-11-12T09:28:21.227Z,64.90
2022-11-12T09:30:52.700Z,65.00
2022-11-12T09:33:33.870Z,64.90
2022-11-12T09:36:04.641Z,64.90
2022-11-12T09:38:34.716Z,64.90
2022-11-12T09:41:30.283Z,64.50
2022-11-12T09:44:04.821Z,64.40
2022-11-12T09:47:01.855Z,64.70
2022-11-12T09:49:38.035Z,64.70
2022-11-12T09:52:18.614Z,64.80
2022-11-12T09:54:52.424Z,64.90
2022-11-12T09:57:22.383Z,64.90
2022-11-12T09:59:52.341Z,64.70
2022-11-12T10:02:37.893Z,64.70
2022-11-12T10:05:34.747Z,64.80
2022-11-12T10:08:43.486Z,64.80
2022-11-12T10:12:11.757Z,64.80
2022-11-12T10:15:40.020Z,65.00
2022-11-12T10:18:48.716Z,65.30
2022-11-12T10:21:36.661Z,65.80
2022-11-12T10:24:10.291Z,66.00
2022-11-12T10:26:41.586Z,66.20
2022-11-12T10:29:36.863Z,66.60
2022-11-12T10:32:06.879Z,67.10
2022-11-12T10:34:37.622Z,67.60
2022-11-12T10:37:46.462Z,67.90
2022-11-12T10:40:32.851Z,68.20
2022-11-12T10:43:08.015Z,68.50
2022-11-12T10:45:38.070Z,68.80
2022-11-12T10:48:26.826Z,69.30
2022-11-12T10:50:57.899Z,69.80
2022-11-12T10:53:40.153Z,70.40
2022-11-12T10:56:33.529Z,70.70
2022-11-12T10:59:23.746Z,71.30
2022-11-12T11:02:02.052Z,71.80
2022-11-12T11:04:37.131Z,72.10
2022-11-12T11:07:26.522Z,72.40
2022-11-12T11:10:02.087Z,72.80
2022-11-12T11:12:35.338Z,73.20
2022-11-12T11:15:25.791Z,73.70
2022-11-12T11:17:55.795Z,74.00
2022-11-12T11:20:52.228Z,74.40
2022-11-12T11:23:33.063Z,74.50
2022-11-12T11:26:26.796Z,74.70
2022-11-12T11:29:16.692Z,74.90
2022-11-12T11:32:00.448Z,75.20
2022-11-12T11:35:00.067Z,75.60
2022-11-12T11:37:38.875Z,76.20
2022-11-12T11:40:28.829Z,76.70
2022-11-12T11:43:33.074Z,76.90
2022-11-12T11:46:16.811Z,77.20
2022-11-12T11:49:09.792Z,77.40
2022-11-12T11:52:08.038Z,78.00
2022-11-12T11:55:17.036Z,79.10
2022-11-12T11:58:01.325Z,78.70
2022-11-12T12:01:02.218Z,79.10
2022-11-12T12:04:06.439Z,79.90
2022-11-12T12:06:59.917Z,80.20
2022-11-12T12:09:48.256Z,80.60
2022-11-12T12:12:57.207Z,80.90
2022-11-12T12:15:56.148Z,81.70
2022-11-12T12:18:53.290Z,81.60
2022-11-12T12:21:25.647Z,81.80
2022-11-12T12:24:15.123Z,82.10
2022-11-12T12:27:18.824Z,82.80
2022-11-12T12:29:59.095Z,83.50
2022-11-12T12:32:39.438Z,83.70
2022-11-12T12:35:48.265Z,83.70
2022-11-12T12:38:29.578Z,84.10
2022-11-12T12:41:29.285Z,84.00
2022-11-12T12:44:07.845Z,83.90
2022-11-12T12:46:44.492Z,84.00
2022-11-12T12:49:36.719Z,84.00
2022-11-12T12:52:06.833Z,84.20
2022-11-12T12:54:56.825Z,84.20
2022-11-12T12:57:39.671Z,84.30
2022-11-12T13:00:33.596Z,84.60
2022-11-12T13:03:03.691Z,84.90
2022-11-12T13:05:44.562Z,84.80
2022-11-12T13:08:25.853Z,85.00
2022-11-12T13:10:56.431Z,85.10
2022-11-12T13:13:36.563Z,85.00
2022-11-12T13:16:06.747Z,85.10
2022-11-12T13:18:59.717Z,85.30
2022-11-12T13:21:30.029Z,85.50
2022-11-12T13:24:12.631Z,85.80
2022-11-12T13:26:49.689Z,85.80
2022-11-12T13:29:27.408Z,85.90
2022-11-12T13:32:36.315Z,85.90
2022-11-12T13:35:45.086Z,86.20
2022-11-12T13:38:19.579Z,86.30
2022-11-12T13:41:11.216Z,86.40
2022-11-12T13:43:45.797Z,87.10
2022-11-12T13:46:35.698Z,86.30
2022-11-12T13:49:11.717Z,86.40
2022-11-12T13:51:48.860Z,86.30
2022-11-12T13:54:39.197Z,86.40
2022-11-12T13:57:30.076Z,86.60
2022-11-12T14:00:24.258Z,86.50
2022-11-12T14:03:10.327Z,86.80
2022-11-12T14:05:41.082Z,86.70
2022-11-12T14:08:47.707Z,86.70
2022-11-12T14:11:54.372Z,86.70
2022-11-12T14:14:47.519Z,86.70
2022-11-12T14:17:54.815Z,86.70
2022-11-12T14:20:40.277Z,86.70
2022-11-12T14:23:25.359Z,86.90
2022-11-12T14:25:58.405Z,86.80
2022-11-12T14:28:36.860Z,86.70
2022-11-12T14:31:13.803Z,86.80
2022-11-12T14:33:45.707Z,87.00
2022-11-12T14:36:20.794Z,87.10
2022-11-12T14:38:56.867Z,87.10
2022-11-12T14:41:34.355Z,87.20
2022-11-12T14:44:13.280Z,87.30
2022-11-12T14:46:59.006Z,87.30
2022-11-12T14:49:50.213Z,87.40
2022-11-12T14:52:30.985Z,87.70
2022-11-12T14:55:08.268Z,87.60
2022-11-12T14:57:38.151Z,87.60
2022-11-12T15:00:41.864Z,87.70
2022-11-12T15:03:17.976Z,87.80
2022-11-12T15:06:12.457Z,87.80
2022-11-12T15:08:42.958Z,88.10
2022-11-12T15:11:37.233Z,88.00
2022-11-12T15:14:07.828Z,88.10
2022-11-12T15:16:37.974Z,88.20
2022-11-12T15:19:28.262Z,88.10
2022-11-12T15:22:04.113Z,88.40
2022-11-12T15:24:37.259Z,88.50
2022-11-12T15:27:35.750Z,88.50
2022-11-12T15:30:37.113Z,88.80
2022-11-12T15:33:24.588Z,88.90
2022-11-12T15:36:02.228Z,88.90
2022-11-12T15:38:39.440Z,88.80
2022-11-12T15:41:21.853Z,88.80
2022-11-12T15:43:51.424Z,88.90
2022-11-12T15:46:21.312Z,89.10
2022-11-12T15:48:55.776Z,89.20
2022-11-12T15:51:26.501Z,89.20
2022-11-12T15:53:56.071Z,89.20
2022-11-12T15:56:25.668Z,89.50
2022-11-12T15:58:55.288Z,89.30
2022-11-12T16:01:24.975Z,89.20
2022-11-12T16:03:54.528Z,89.50
2022-11-12T16:06:24.064Z,89.50
2022-11-12T16:08:53.994Z,89.30
2022-11-12T16:11:43.121Z,89.70
2022-11-12T16:14:15.763Z,90.10
2022-11-12T16:16:45.272Z,90.20
2022-11-12T16:19:16.577Z,90.30
2022-11-12T16:21:46.188Z,90.30
2022-11-12T16:24:15.762Z,90.30
2022-11-12T16:26:45.513Z,90.20
2022-11-12T16:29:16.277Z,90.30
2022-11-12T16:31:46.377Z,90.40
2022-11-12T16:34:15.882Z,90.40
2022-11-12T16:36:45.464Z,90.40
2022-11-12T16:39:16.144Z,90.40
2022-11-12T16:41:45.717Z,90.40
2022-11-12T16:44:15.210Z,90.50
2022-11-12T16:46:45.624Z,90.80
2022-11-12T16:49:17.061Z,90.50
2022-11-12T16:51:47.695Z,90.50
2022-11-12T16:54:17.650Z,90.50
2022-11-12T16:56:47.542Z,90.60
2022-11-12T16:59:17.544Z,90.60
2022-11-12T17:01:47.506Z,90.70
2022-11-12T17:04:17.490Z,90.70
2022-11-12T17:06:47.575Z,90.80
2022-11-12T17:09:19.672Z,90.80
2022-11-12T17:11:49.646Z,90.80
2022-11-12T17:14:23.019Z,90.80
2022-11-12T17:16:55.819Z,90.80
2022-11-12T17:19:25.758Z,90.90
2022-11-12T17:21:56.037Z,90.90
2022-11-12T17:24:29.081Z,90.90
2022-11-12T17:26:59.558Z,90.90
2022-11-12T17:29:30.545Z,90.90
2022-11-12T17:32:00.532Z,90.90
2022-11-12T17:34:30.495Z,91.00
2022-11-12T17:37:00.551Z,91.00
2022-11-12T17:39:30.558Z,91.00
2022-11-12T17:42:00.966Z,91.00
2022-11-12T17:44:31.609Z,91.10
2022-11-12T17:47:01.546Z,91.00
2022-11-12T17:49:31.489Z,91.10
2022-11-12T17:52:04.461Z,91.10
2022-11-12T17:54:34.480Z,91.00
2022-11-12T17:57:04.398Z,91.10
2022-11-12T17:59:34.272Z,91.20
2022-11-12T18:02:04.152Z,91.30
2022-11-12T18:04:34.077Z,91.30
2022-11-12T18:07:04.015Z,91.20
2022-11-12T18:09:33.969Z,91.30
2022-11-12T18:12:03.937Z,91.40
2022-11-12T18:14:33.918Z,91.40
2022-11-12T18:17:03.905Z,91.40
2022-11-12T18:19:33.892Z,91.40
2022-11-12T18:22:04.035Z,91.40
2022-11-12T18:24:34.006Z,91.40
2022-11-12T18:27:03.942Z,91.40
2022-11-12T18:29:33.948Z,91.50
2022-11-12T18:32:03.922Z,91.50
2022-11-12T18:34:33.753Z,91.50
2022-11-12T18:37:03.754Z,91.50
2022-11-12T18:39:34.066Z,91.60
2022-11-12T18:42:04.318Z,91.60
2022-11-12T18:44:34.819Z,91.60
2022-11-12T18:47:04.775Z,91.70
2022-11-12T18:49:34.876Z,91.70
2022-11-12T18:52:04.830Z,91.70
2022-11-12T18:54:34.815Z,91.70
2022-11-12T18:57:04.944Z,91.70
2022-11-12T18:59:35.037Z,91.70
2022-11-12T19:02:05.068Z,91.70
2022-11-12T19:04:34.999Z,91.70
2022-11-12T19:07:05.013Z,91.70
2022-11-12T19:09:37.153Z,91.80
2022-11-12T19:12:07.305Z,91.80
2022-11-12T19:14:37.280Z,91.80
2022-11-12T19:17:07.285Z,91.80
2022-11-12T19:19:37.455Z,91.80
2022-11-12T19:22:07.454Z,91.80
2022-11-12T19:24:37.384Z,91.80
2022-11-12T19:27:07.326Z,91.90
2022-11-12T19:29:38.599Z,91.90
2022-11-12T19:32:09.380Z,91.90
2022-11-12T19:34:39.241Z,91.90
2022-11-12T19:39:59.185Z,91.90
2022-11-12T19:42:29.882Z,92.00
2022-11-12T19:44:59.992Z,92.00
2022-11-12T19:47:29.534Z,92.00
2022-11-12T19:49:59.190Z,92.00
2022-11-12T19:52:28.842Z,92.00
2022-11-12T19:54:58.503Z,92.10
2022-11-12T19:57:29.403Z,92.10
2022-11-12T19:59:59.018Z,92.10
2022-11-12T20:02:29.028Z,92.10
2022-11-12T20:04:58.670Z,92.10
2022-11-12T20:07:28.308Z,92.10
2022-11-12T20:10:00.909Z,92.20
2022-11-12T20:12:31.863Z,92.20
2022-11-12T20:15:01.466Z,92.20
2022-11-12T20:17:33.567Z,92.20
2022-11-12T20:20:03.096Z,92.20
2022-11-12T20:22:33.508Z,92.20
2022-11-12T20:25:03.429Z,92.10
2022-11-12T20:27:33.007Z,92.20
2022-11-12T20:30:02.558Z,92.20
2022-11-12T20:32:32.106Z,92.20
2022-11-12T20:35:01.734Z,92.50
2022-11-12T20:37:32.255Z,92.20
2022-11-12T20:40:01.888Z,92.30
2022-11-12T20:42:31.715Z,92.30
2022-11-12T20:45:02.626Z,92.40
2022-11-12T20:47:32.605Z,92.40
2022-11-12T20:50:02.604Z,92.40
2022-11-12T20:52:32.694Z,92.50
2022-11-12T20:55:02.610Z,92.50
2022-11-12T20:57:32.538Z,92.50
2022-11-12T21:00:02.505Z,92.50
2022-11-12T21:02:32.434Z,92.40
2022-11-12T21:05:02.424Z,92.50
2022-11-12T21:07:32.417Z,92.50
2022-11-12T21:10:02.548Z,92.50
2022-11-12T21:12:34.686Z,92.50
2022-11-12T21:15:04.699Z,92.60
2022-11-12T21:17:34.686Z,92.60
2022-11-12T21:20:04.758Z,92.60
2022-11-12T21:22:35.508Z,92.60
2022-11-12T21:25:05.465Z,92.70
2022-11-12T21:27:35.457Z,92.60
2022-11-12T21:30:05.654Z,92.60
2022-11-12T21:32:35.597Z,92.60
2022-11-12T21:35:05.606Z,92.60
2022-11-12T21:37:35.490Z,92.70
2022-11-12T21:40:05.652Z,92.70
2022-11-12T21:42:35.855Z,92.70
2022-11-12T21:45:06.572Z,92.70
2022-11-12T21:47:36.624Z,92.80
2022-11-12T21:50:07.818Z,92.80
2022-11-12T21:52:37.754Z,92.80
2022-11-12T21:55:08.154Z,93.20
2022-11-12T21:57:38.153Z,92.80
2022-11-12T22:00:39.554Z,92.80
2022-11-12T22:02:59.861Z,92.80
2022-11-12T22:05:29.837Z,92.80
2022-11-12T22:07:59.883Z,92.90
2022-11-12T22:10:29.741Z,92.90
2022-11-12T22:15:52.317Z,92.90
2022-11-12T22:18:22.140Z,92.90
2022-11-12T22:21:06.311Z,92.90
2022-11-12T22:23:39.599Z,92.90
2022-11-12T22:26:15.141Z,92.90
2022-11-12T22:28:45.605Z,92.90
2022-11-12T22:31:22.005Z,92.90
2022-11-12T22:33:52.440Z,92.90
2022-11-12T22:36:25.616Z,92.80
2022-11-12T22:38:57.648Z,92.80
2022-11-12T22:41:30.066Z,93.00
2022-11-12T22:44:02.309Z,93.10
2022-11-12T22:46:35.343Z,93.10
2022-11-12T22:49:07.019Z,93.10
2022-11-12T22:51:38.328Z,93.10
2022-11-12T22:54:11.006Z,93.20
2022-11-12T22:56:41.450Z,93.20
2022-11-12T22:59:13.120Z,93.20
2022-11-12T23:01:43.149Z,93.20
2022-11-12T23:04:13.057Z,93.20
2022-11-12T23:06:43.054Z,93.20
2022-11-12T23:09:18.343Z,93.30
2022-11-12T23:11:48.355Z,93.20
2022-11-12T23:14:18.347Z,93.30
2022-11-12T23:16:48.375Z,93.20
2022-11-12T23:19:18.413Z,93.30
2022-11-12T23:21:48.301Z,93.30
2022-11-12T23:24:18.209Z,93.30
2022-11-12T23:26:48.179Z,93.30
2022-11-12T23:29:18.127Z,93.30
2022-11-12T23:31:48.310Z,93.30
2022-11-12T23:34:18.283Z,93.30
2022-11-12T23:36:48.331Z,93.30
2022-11-12T23:39:18.266Z,93.30
2022-11-12T23:41:48.210Z,93.40
2022-11-12T23:44:18.387Z,93.40
2022-11-12T23:46:48.905Z,93.40
2022-11-12T23:49:18.807Z,93.50
2022-11-12T23:51:48.674Z,93.50
2022-11-12T23:54:18.647Z,93.50
2022-11-12T23:56:48.526Z,93.60
2022-11-12T23:59:18.523Z,93.60
